sensor_id;sensor_type;location;lat;lon;timestamp;P1;durP1;ratioP1;P2;durP2;ratioP2
59998;SDS011;45859;51.378;6.736;2024-01-15T00:02:23;12.53;;;6.17;;
59998;SDS011;45859;51.378;6.736;2024-01-15T00:04:49;26.47;;;11.30;;
59998;SDS011;45859;51.378;6.736;2024-01-15T00:07:15;28.77;;;11.23;;
59998;SDS011;45859;51.378;6.736;2024-01-15T00:09:41;46.90;;;13.33;;
59998;SDS011;45859;51.378;6.736;2024-01-15T00:12:07;24.47;;;9.60;;
59998;SDS011;45859;51.378;6.736;2024-01-15T00:14:33;41.97;;;13.90;;
59998;SDS011;45859;51.378;6.736;2024-01-15T00:16:59;17.73;;;8.37;;
59998;SDS011;45859;51.378;6.736;2024-01-15T00:19:25;33.00;;;12.87;;
59998;SDS011;45859;51.378;6.736;2024-01-15T00:21:52;33.37;;;13.33;;
59998;SDS011;45859;51.378;6.736;2024-01-15T00:24:17;24.80;;;10.40;;
59998;SDS011;45859;51.378;6.736;2024-01-15T00:26:44;23.47;;;9.43;;
59998;SDS011;45859;51.378;6.736;2024-01-15T00:29:10;19.63;;;8.13;;
59998;SDS011;45859;51.378;6.736;2024-01-15T00:31:36;22.30;;;9.23;;
59998;SDS011;45859;51.378;6.736;2024-01-15T00:34:02;33.80;;;12.77;;
59998;SDS011;45859;51.378;6.736;2024-01-15T00:36:28;21.07;;;10.70;;
59998;SDS011;45859;51.378;6.736;2024-01-15T00:38:54;32.67;;;12.10;;
59998;SDS011;45859;51.378;6.736;2024-01-15T00:41:20;37.17;;;13.30;;
59998;SDS011;45859;51.378;6.736;2024-01-15T00:43:46;28.97;;;11.73;;
59998;SDS011;45859;51.378;6.736;2024-01-15T00:46:14;18.87;;;9.80;;
59998;SDS011;45859;51.378;6.736;2024-01-15T00:48:40;27.47;;;10.63;;
59998;SDS011;45859;51.378;6.736;2024-01-15T00:51:05;24.17;;;10.47;;
59998;SDS011;45859;51.378;6.736;2024-01-15T00:53:32;31.53;;;12.23;;
59998;SDS011;45859;51.378;6.736;2024-01-15T00:55:57;21.30;;;9.47;;
59998;SDS011;45859;51.378;6.736;2024-01-15T00:58:24;25.77;;;11.53;;
59998;SDS011;45859;51.378;6.736;2024-01-15T01:00:50;29.80;;;11.97;;
59998;SDS011;45859;51.378;6.736;2024-01-15T01:03:15;34.10;;;13.23;;
59998;SDS011;45859;51.378;6.736;2024-01-15T01:05:41;21.27;;;8.77;;
59998;SDS011;45859;51.378;6.736;2024-01-15T01:08:08;30.77;;;12.77;;
59998;SDS011;45859;51.378;6.736;2024-01-15T01:10:34;33.73;;;13.43;;
59998;SDS011;45859;51.378;6.736;2024-01-15T01:13:00;23.50;;;9.60;;
59998;SDS011;45859;51.378;6.736;2024-01-15T01:15:26;30.57;;;13.17;;
59998;SDS011;45859;51.378;6.736;2024-01-15T01:17:52;31.67;;;13.60;;
59998;SDS011;45859;51.378;6.736;2024-01-15T01:20:18;29.70;;;13.50;;
59998;SDS011;45859;51.378;6.736;2024-01-15T01:22:44;35.63;;;14.63;;
59998;SDS011;45859;51.378;6.736;2024-01-15T01:25:10;28.43;;;10.80;;
59998;SDS011;45859;51.378;6.736;2024-01-15T01:27:36;23.97;;;11.00;;
59998;SDS011;45859;51.378;6.736;2024-01-15T01:30:02;34.63;;;13.17;;
59998;SDS011;45859;51.378;6.736;2024-01-15T01:32:28;21.60;;;9.03;;
59998;SDS011;45859;51.378;6.736;2024-01-15T01:34:54;38.63;;;11.27;;
59998;SDS011;45859;51.378;6.736;2024-01-15T01:37:20;34.03;;;13.30;;
59998;SDS011;45859;51.378;6.736;2024-01-15T01:39:46;22.40;;;8.27;;
59998;SDS011;45859;51.378;6.736;2024-01-15T01:42:12;25.63;;;10.77;;
59998;SDS011;45859;51.378;6.736;2024-01-15T01:44:38;35.47;;;12.77;;
59998;SDS011;45859;51.378;6.736;2024-01-15T01:47:04;16.77;;;8.20;;
59998;SDS011;45859;51.378;6.736;2024-01-15T01:49:31;35.13;;;13.73;;
59998;SDS011;45859;51.378;6.736;2024-01-15T01:51:59;28.73;;;10.90;;
59998;SDS011;45859;51.378;6.736;2024-01-15T01:54:26;22.00;;;7.37;;
59998;SDS011;45859;51.378;6.736;2024-01-15T01:56:54;31.90;;;11.67;;
59998;SDS011;45859;51.378;6.736;2024-01-15T01:59:21;22.93;;;8.40;;
59998;SDS011;45859;51.378;6.736;2024-01-15T02:01:48;14.90;;;6.40;;
59998;SDS011;45859;51.378;6.736;2024-01-15T02:04:15;43.73;;;12.43;;
59998;SDS011;45859;51.378;6.736;2024-01-15T02:06:41;25.67;;;9.73;;
59998;SDS011;45859;51.378;6.736;2024-01-15T02:09:07;22.40;;;10.07;;
59998;SDS011;45859;51.378;6.736;2024-01-15T02:11:34;18.57;;;6.97;;
59998;SDS011;45859;51.378;6.736;2024-01-15T02:14:01;25.17;;;10.47;;
59998;SDS011;45859;51.378;6.736;2024-01-15T02:16:27;29.10;;;10.97;;
59998;SDS011;45859;51.378;6.736;2024-01-15T02:18:53;18.33;;;6.87;;
59998;SDS011;45859;51.378;6.736;2024-01-15T02:21:19;24.57;;;8.40;;
59998;SDS011;45859;51.378;6.736;2024-01-15T02:23:45;28.47;;;10.67;;
59998;SDS011;45859;51.378;6.736;2024-01-15T02:26:11;24.37;;;9.83;;
59998;SDS011;45859;51.378;6.736;2024-01-15T02:28:38;25.33;;;11.33;;
59998;SDS011;45859;51.378;6.736;2024-01-15T02:31:06;27.00;;;10.57;;
59998;SDS011;45859;51.378;6.736;2024-01-15T02:33:32;22.43;;;10.60;;
59998;SDS011;45859;51.378;6.736;2024-01-15T02:35:58;21.67;;;8.33;;
59998;SDS011;45859;51.378;6.736;2024-01-15T02:38:24;15.47;;;7.70;;
59998;SDS011;45859;51.378;6.736;2024-01-15T02:40:50;23.47;;;8.57;;
59998;SDS011;45859;51.378;6.736;2024-01-15T02:43:16;19.23;;;7.10;;
59998;SDS011;45859;51.378;6.736;2024-01-15T02:45:44;28.47;;;7.43;;
59998;SDS011;45859;51.378;6.736;2024-01-15T02:48:10;21.20;;;10.00;;
59998;SDS011;45859;51.378;6.736;2024-01-15T02:50:36;13.23;;;6.57;;
59998;SDS011;45859;51.378;6.736;2024-01-15T02:53:02;13.50;;;6.73;;
59998;SDS011;45859;51.378;6.736;2024-01-15T02:55:28;22.23;;;9.57;;
59998;SDS011;45859;51.378;6.736;2024-01-15T02:57:54;17.20;;;6.93;;
59998;SDS011;45859;51.378;6.736;2024-01-15T03:00:20;20.17;;;7.03;;
59998;SDS011;45859;51.378;6.736;2024-01-15T03:02:47;8.53;;;5.50;;
59998;SDS011;45859;51.378;6.736;2024-01-15T03:05:15;19.93;;;6.77;;
59998;SDS011;45859;51.378;6.736;2024-01-15T03:10:32;22.30;;;8.80;;
59998;SDS011;45859;51.378;6.736;2024-01-15T03:12:58;16.07;;;6.53;;
59998;SDS011;45859;51.378;6.736;2024-01-15T03:15:24;23.93;;;7.73;;
59998;SDS011;45859;51.378;6.736;2024-01-15T03:17:50;19.80;;;8.07;;
59998;SDS011;45859;51.378;6.736;2024-01-15T03:20:16;22.70;;;8.33;;
59998;SDS011;45859;51.378;6.736;2024-01-15T03:22:42;19.67;;;9.63;;
59998;SDS011;45859;51.378;6.736;2024-01-15T03:25:08;20.27;;;9.13;;
59998;SDS011;45859;51.378;6.736;2024-01-15T03:27:34;21.00;;;8.10;;
59998;SDS011;45859;51.378;6.736;2024-01-15T03:30:00;20.23;;;9.13;;
59998;SDS011;45859;51.378;6.736;2024-01-15T03:32:27;23.23;;;9.83;;
59998;SDS011;45859;51.378;6.736;2024-01-15T03:34:53;26.37;;;10.33;;
59998;SDS011;45859;51.378;6.736;2024-01-15T03:37:19;22.43;;;10.07;;
59998;SDS011;45859;51.378;6.736;2024-01-15T03:39:45;19.33;;;7.40;;
59998;SDS011;45859;51.378;6.736;2024-01-15T03:42:11;23.10;;;10.60;;
59998;SDS011;45859;51.378;6.736;2024-01-15T03:44:37;22.03;;;9.40;;
59998;SDS011;45859;51.378;6.736;2024-01-15T03:47:03;22.23;;;9.50;;
59998;SDS011;45859;51.378;6.736;2024-01-15T03:49:29;17.13;;;7.43;;
59998;SDS011;45859;51.378;6.736;2024-01-15T03:51:55;22.20;;;7.57;;
59998;SDS011;45859;51.378;6.736;2024-01-15T03:54:21;17.17;;;8.33;;
59998;SDS011;45859;51.378;6.736;2024-01-15T03:56:47;11.20;;;6.07;;
59998;SDS011;45859;51.378;6.736;2024-01-15T03:59:13;22.97;;;9.40;;
59998;SDS011;45859;51.378;6.736;2024-01-15T04:01:39;22.13;;;10.50;;
59998;SDS011;45859;51.378;6.736;2024-01-15T04:04:05;16.73;;;8.40;;
59998;SDS011;45859;51.378;6.736;2024-01-15T04:06:31;8.90;;;4.83;;
59998;SDS011;45859;51.378;6.736;2024-01-15T04:08:58;15.83;;;7.50;;
59998;SDS011;45859;51.378;6.736;2024-01-15T04:11:23;12.20;;;5.83;;
59998;SDS011;45859;51.378;6.736;2024-01-15T04:13:49;15.23;;;6.53;;
59998;SDS011;45859;51.378;6.736;2024-01-15T04:16:15;23.57;;;10.30;;
59998;SDS011;45859;51.378;6.736;2024-01-15T04:18:41;7.87;;;3.93;;
59998;SDS011;45859;51.378;6.736;2024-01-15T04:21:07;16.10;;;7.77;;
59998;SDS011;45859;51.378;6.736;2024-01-15T04:23:33;17.60;;;7.97;;
59998;SDS011;45859;51.378;6.736;2024-01-15T04:25:59;19.57;;;7.10;;
59998;SDS011;45859;51.378;6.736;2024-01-15T04:28:25;14.60;;;7.20;;
59998;SDS011;45859;51.378;6.736;2024-01-15T04:30:51;14.77;;;7.57;;
59998;SDS011;45859;51.378;6.736;2024-01-15T04:33:17;19.00;;;6.63;;
59998;SDS011;45859;51.378;6.736;2024-01-15T04:35:43;19.43;;;7.57;;
59998;SDS011;45859;51.378;6.736;2024-01-15T04:38:09;8.13;;;5.23;;
59998;SDS011;45859;51.378;6.736;2024-01-15T04:40:35;19.90;;;8.07;;
59998;SDS011;45859;51.378;6.736;2024-01-15T04:43:01;18.30;;;6.43;;
59998;SDS011;45859;51.378;6.736;2024-01-15T04:45:27;11.87;;;6.33;;
59998;SDS011;45859;51.378;6.736;2024-01-15T04:47:54;16.97;;;8.87;;
59998;SDS011;45859;51.378;6.736;2024-01-15T04:50:21;25.03;;;9.37;;
59998;SDS011;45859;51.378;6.736;2024-01-15T04:52:47;20.77;;;7.57;;
59998;SDS011;45859;51.378;6.736;2024-01-15T04:55:13;12.67;;;5.90;;
59998;SDS011;45859;51.378;6.736;2024-01-15T04:57:39;18.77;;;7.97;;
59998;SDS011;45859;51.378;6.736;2024-01-15T05:00:05;13.07;;;5.87;;
59998;SDS011;45859;51.378;6.736;2024-01-15T05:02:31;17.73;;;5.80;;
59998;SDS011;45859;51.378;6.736;2024-01-15T05:04:57;16.47;;;5.67;;
59998;SDS011;45859;51.378;6.736;2024-01-15T05:07:23;12.33;;;5.50;;
59998;SDS011;45859;51.378;6.736;2024-01-15T05:09:49;11.13;;;4.33;;
59998;SDS011;45859;51.378;6.736;2024-01-15T05:12:15;6.27;;;2.73;;
59998;SDS011;45859;51.378;6.736;2024-01-15T05:14:41;19.63;;;8.03;;
59998;SDS011;45859;51.378;6.736;2024-01-15T05:17:07;23.70;;;9.03;;
59998;SDS011;45859;51.378;6.736;2024-01-15T05:19:33;17.27;;;7.17;;
59998;SDS011;45859;51.378;6.736;2024-01-15T05:21:59;23.37;;;8.83;;
59998;SDS011;45859;51.378;6.736;2024-01-15T05:24:25;12.50;;;4.77;;
59998;SDS011;45859;51.378;6.736;2024-01-15T05:26:51;21.63;;;8.57;;
59998;SDS011;45859;51.378;6.736;2024-01-15T05:29:17;11.93;;;5.10;;
59998;SDS011;45859;51.378;6.736;2024-01-15T05:31:43;9.07;;;4.73;;
59998;SDS011;45859;51.378;6.736;2024-01-15T05:34:09;18.17;;;6.80;;
59998;SDS011;45859;51.378;6.736;2024-01-15T05:36:35;13.17;;;6.90;;
59998;SDS011;45859;51.378;6.736;2024-01-15T05:39:01;12.43;;;6.23;;
59998;SDS011;45859;51.378;6.736;2024-01-15T05:41:27;15.23;;;6.67;;
59998;SDS011;45859;51.378;6.736;2024-01-15T05:43:53;16.93;;;6.73;;
59998;SDS011;45859;51.378;6.736;2024-01-15T05:46:19;14.27;;;6.27;;
59998;SDS011;45859;51.378;6.736;2024-01-15T05:48:45;5.30;;;2.97;;
59998;SDS011;45859;51.378;6.736;2024-01-15T05:51:12;10.53;;;4.83;;
59998;SDS011;45859;51.378;6.736;2024-01-15T05:53:37;11.60;;;5.30;;
59998;SDS011;45859;51.378;6.736;2024-01-15T05:56:05;13.17;;;4.73;;
59998;SDS011;45859;51.378;6.736;2024-01-15T05:58:31;14.37;;;5.30;;
59998;SDS011;45859;51.378;6.736;2024-01-15T06:00:57;14.20;;;5.50;;
59998;SDS011;45859;51.378;6.736;2024-01-15T06:03:23;17.07;;;5.43;;
59998;SDS011;45859;51.378;6.736;2024-01-15T06:05:49;13.70;;;5.97;;
59998;SDS011;45859;51.378;6.736;2024-01-15T06:08:15;7.10;;;4.10;;
59998;SDS011;45859;51.378;6.736;2024-01-15T06:10:41;11.80;;;4.87;;
59998;SDS011;45859;51.378;6.736;2024-01-15T06:13:07;9.90;;;5.50;;
59998;SDS011;45859;51.378;6.736;2024-01-15T06:15:33;12.53;;;5.33;;
59998;SDS011;45859;51.378;6.736;2024-01-15T06:17:59;15.37;;;4.90;;
59998;SDS011;45859;51.378;6.736;2024-01-15T06:20:25;11.30;;;5.03;;
59998;SDS011;45859;51.378;6.736;2024-01-15T06:22:51;8.33;;;4.40;;
59998;SDS011;45859;51.378;6.736;2024-01-15T06:25:17;9.87;;;4.40;;
59998;SDS011;45859;51.378;6.736;2024-01-15T06:27:43;12.40;;;4.80;;
59998;SDS011;45859;51.378;6.736;2024-01-15T06:30:09;14.37;;;5.63;;
59998;SDS011;45859;51.378;6.736;2024-01-15T06:32:35;3.97;;;1.67;;
59998;SDS011;45859;51.378;6.736;2024-01-15T06:35:01;5.20;;;3.03;;
59998;SDS011;45859;51.378;6.736;2024-01-15T06:37:27;9.70;;;3.67;;
59998;SDS011;45859;51.378;6.736;2024-01-15T06:39:53;5.27;;;3.17;;
59998;SDS011;45859;51.378;6.736;2024-01-15T06:42:19;6.40;;;3.17;;
59998;SDS011;45859;51.378;6.736;2024-01-15T06:44:47;5.43;;;2.20;;
59998;SDS011;45859;51.378;6.736;2024-01-15T06:47:13;6.07;;;2.60;;
59998;SDS011;45859;51.378;6.736;2024-01-15T06:49:39;1.97;;;1.67;;
59998;SDS011;45859;51.378;6.736;2024-01-15T06:52:05;5.37;;;2.60;;
59998;SDS011;45859;51.378;6.736;2024-01-15T06:54:31;3.10;;;2.20;;
59998;SDS011;45859;51.378;6.736;2024-01-15T06:56:57;9.17;;;2.93;;
59998;SDS011;45859;51.378;6.736;2024-01-15T06:59:22;3.37;;;1.37;;
59998;SDS011;45859;51.378;6.736;2024-01-15T07:01:48;2.53;;;1.40;;
59998;SDS011;45859;51.378;6.736;2024-01-15T07:04:15;7.03;;;2.87;;
59998;SDS011;45859;51.378;6.736;2024-01-15T07:06:41;5.47;;;2.77;;
59998;SDS011;45859;51.378;6.736;2024-01-15T07:09:06;8.17;;;2.60;;
59998;SDS011;45859;51.378;6.736;2024-01-15T07:11:34;5.30;;;2.70;;
59998;SDS011;45859;51.378;6.736;2024-01-15T07:13:59;5.67;;;2.20;;
59998;SDS011;45859;51.378;6.736;2024-01-15T07:16:25;7.40;;;2.83;;
59998;SDS011;45859;51.378;6.736;2024-01-15T07:18:51;12.03;;;3.70;;
59998;SDS011;45859;51.378;6.736;2024-01-15T07:21:17;6.87;;;3.60;;
59998;SDS011;45859;51.378;6.736;2024-01-15T07:23:44;6.83;;;3.50;;
59998;SDS011;45859;51.378;6.736;2024-01-15T07:26:10;11.53;;;5.43;;
59998;SDS011;45859;51.378;6.736;2024-01-15T07:28:36;11.47;;;4.70;;
59998;SDS011;45859;51.378;6.736;2024-01-15T07:31:02;9.80;;;4.57;;
59998;SDS011;45859;51.378;6.736;2024-01-15T07:33:28;17.43;;;7.53;;
59998;SDS011;45859;51.378;6.736;2024-01-15T07:35:54;11.67;;;5.50;;
59998;SDS011;45859;51.378;6.736;2024-01-15T07:38:20;16.57;;;6.33;;
59998;SDS011;45859;51.378;6.736;2024-01-15T07:40:46;11.00;;;5.80;;
59998;SDS011;45859;51.378;6.736;2024-01-15T07:43:14;13.23;;;6.23;;
59998;SDS011;45859;51.378;6.736;2024-01-15T07:45:40;9.50;;;4.13;;
59998;SDS011;45859;51.378;6.736;2024-01-15T07:48:06;12.70;;;5.53;;
59998;SDS011;45859;51.378;6.736;2024-01-15T07:50:32;12.33;;;6.70;;
59998;SDS011;45859;51.378;6.736;2024-01-15T07:52:58;16.23;;;6.90;;
59998;SDS011;45859;51.378;6.736;2024-01-15T07:55:24;19.67;;;5.43;;
59998;SDS011;45859;51.378;6.736;2024-01-15T07:57:50;8.20;;;3.60;;
59998;SDS011;45859;51.378;6.736;2024-01-15T08:00:17;9.50;;;3.60;;
59998;SDS011;45859;51.378;6.736;2024-01-15T08:02:43;13.33;;;7.17;;
59998;SDS011;45859;51.378;6.736;2024-01-15T08:05:09;10.23;;;5.00;;
59998;SDS011;45859;51.378;6.736;2024-01-15T08:07:35;9.80;;;3.87;;
59998;SDS011;45859;51.378;6.736;2024-01-15T08:10:01;10.47;;;5.07;;
59998;SDS011;45859;51.378;6.736;2024-01-15T08:12:28;9.47;;;5.07;;
59998;SDS011;45859;51.378;6.736;2024-01-15T08:14:54;11.50;;;4.50;;
59998;SDS011;45859;51.378;6.736;2024-01-15T08:17:20;9.07;;;4.83;;
59998;SDS011;45859;51.378;6.736;2024-01-15T08:19:46;21.00;;;6.30;;
59998;SDS011;45859;51.378;6.736;2024-01-15T08:22:12;12.47;;;6.33;;
59998;SDS011;45859;51.378;6.736;2024-01-15T08:24:37;11.43;;;5.83;;
59998;SDS011;45859;51.378;6.736;2024-01-15T08:27:03;14.30;;;5.67;;
59998;SDS011;45859;51.378;6.736;2024-01-15T08:29:29;11.67;;;5.07;;
59998;SDS011;45859;51.378;6.736;2024-01-15T08:31:58;6.57;;;3.83;;
59998;SDS011;45859;51.378;6.736;2024-01-15T08:34:24;3.20;;;2.73;;
59998;SDS011;45859;51.378;6.736;2024-01-15T08:36:50;5.70;;;3.30;;
59998;SDS011;45859;51.378;6.736;2024-01-15T08:39:16;6.43;;;4.17;;
59998;SDS011;45859;51.378;6.736;2024-01-15T08:41:44;8.03;;;4.40;;
59998;SDS011;45859;51.378;6.736;2024-01-15T08:44:11;6.07;;;3.93;;
59998;SDS011;45859;51.378;6.736;2024-01-15T08:46:37;5.33;;;2.83;;
59998;SDS011;45859;51.378;6.736;2024-01-15T08:49:16;11.50;;;5.20;;
59998;SDS011;45859;51.378;6.736;2024-01-15T08:51:42;8.93;;;3.93;;
59998;SDS011;45859;51.378;6.736;2024-01-15T08:54:08;8.50;;;3.90;;
59998;SDS011;45859;51.378;6.736;2024-01-15T08:56:34;8.77;;;4.57;;
59998;SDS011;45859;51.378;6.736;2024-01-15T08:59:00;6.67;;;3.47;;
59998;SDS011;45859;51.378;6.736;2024-01-15T09:01:26;6.27;;;2.60;;
59998;SDS011;45859;51.378;6.736;2024-01-15T09:03:52;7.73;;;3.97;;
59998;SDS011;45859;51.378;6.736;2024-01-15T09:06:21;7.13;;;2.87;;
59998;SDS011;45859;51.378;6.736;2024-01-15T09:08:56;4.47;;;2.07;;
59998;SDS011;45859;51.378;6.736;2024-01-15T09:11:22;5.87;;;2.53;;
59998;SDS011;45859;51.378;6.736;2024-01-15T09:13:48;7.47;;;3.37;;
59998;SDS011;45859;51.378;6.736;2024-01-15T09:16:17;7.50;;;3.53;;
59998;SDS011;45859;51.378;6.736;2024-01-15T09:18:43;11.27;;;3.63;;
59998;SDS011;45859;51.378;6.736;2024-01-15T09:21:12;3.73;;;2.13;;
59998;SDS011;45859;51.378;6.736;2024-01-15T09:23:38;6.33;;;2.70;;
59998;SDS011;45859;51.378;6.736;2024-01-15T09:26:04;5.37;;;3.10;;
59998;SDS011;45859;51.378;6.736;2024-01-15T09:28:30;7.07;;;2.17;;
59998;SDS011;45859;51.378;6.736;2024-01-15T09:30:56;9.90;;;4.53;;
59998;SDS011;45859;51.378;6.736;2024-01-15T09:33:22;4.37;;;2.43;;
59998;SDS011;45859;51.378;6.736;2024-01-15T09:36:04;6.47;;;3.50;;
59998;SDS011;45859;51.378;6.736;2024-01-15T09:38:30;5.87;;;2.27;;
59998;SDS011;45859;51.378;6.736;2024-01-15T09:41:05;5.00;;;2.97;;
59998;SDS011;45859;51.378;6.736;2024-01-15T09:43:37;6.90;;;2.87;;
59998;SDS011;45859;51.378;6.736;2024-01-15T09:46:04;6.17;;;3.40;;
59998;SDS011;45859;51.378;6.736;2024-01-15T09:48:33;5.33;;;2.17;;
59998;SDS011;45859;51.378;6.736;2024-01-15T09:51:06;3.65;;;2.20;;
59998;SDS011;45859;51.378;6.736;2024-01-15T09:53:39;5.77;;;2.77;;
59998;SDS011;45859;51.378;6.736;2024-01-15T09:56:16;3.83;;;2.55;;
59998;SDS011;45859;51.378;6.736;2024-01-15T09:58:42;3.90;;;2.80;;
59998;SDS011;45859;51.378;6.736;2024-01-15T10:01:15;5.60;;;2.87;;
59998;SDS011;45859;51.378;6.736;2024-01-15T10:03:42;8.40;;;3.93;;
59998;SDS011;45859;51.378;6.736;2024-01-15T10:06:08;9.47;;;3.10;;
59998;SDS011;45859;51.378;6.736;2024-01-15T10:08:36;8.40;;;3.17;;
59998;SDS011;45859;51.378;6.736;2024-01-15T10:11:02;7.47;;;3.37;;
59998;SDS011;45859;51.378;6.736;2024-01-15T10:13:30;5.67;;;3.43;;
59998;SDS011;45859;51.378;6.736;2024-01-15T10:15:56;4.03;;;2.07;;
59998;SDS011;45859;51.378;6.736;2024-01-15T10:18:23;2.80;;;1.70;;
59998;SDS011;45859;51.378;6.736;2024-01-15T10:20:49;7.23;;;2.47;;
59998;SDS011;45859;51.378;6.736;2024-01-15T10:23:15;6.87;;;3.00;;
59998;SDS011;45859;51.378;6.736;2024-01-15T10:25:42;4.43;;;2.50;;
59998;SDS011;45859;51.378;6.736;2024-01-15T10:28:08;4.80;;;3.07;;
59998;SDS011;45859;51.378;6.736;2024-01-15T10:30:35;2.97;;;1.93;;
59998;SDS011;45859;51.378;6.736;2024-01-15T10:33:03;7.77;;;2.97;;
59998;SDS011;45859;51.378;6.736;2024-01-15T10:35:30;6.20;;;2.23;;
59998;SDS011;45859;51.378;6.736;2024-01-15T10:37:57;3.03;;;1.90;;
59998;SDS011;45859;51.378;6.736;2024-01-15T10:40:23;2.80;;;1.67;;
59998;SDS011;45859;51.378;6.736;2024-01-15T10:42:49;4.80;;;2.30;;
59998;SDS011;45859;51.378;6.736;2024-01-15T10:45:19;9.50;;;3.37;;
59998;SDS011;45859;51.378;6.736;2024-01-15T10:47:45;5.37;;;3.17;;
59998;SDS011;45859;51.378;6.736;2024-01-15T10:50:17;4.53;;;2.37;;
59998;SDS011;45859;51.378;6.736;2024-01-15T10:52:46;5.33;;;3.20;;
59998;SDS011;45859;51.378;6.736;2024-01-15T10:57:59;5.93;;;3.20;;
59998;SDS011;45859;51.378;6.736;2024-01-15T11:00:29;4.28;;;2.70;;
59998;SDS011;45859;51.378;6.736;2024-01-15T11:05:38;4.70;;;2.30;;
59998;SDS011;45859;51.378;6.736;2024-01-15T11:08:20;6.30;;;3.03;;
59998;SDS011;45859;51.378;6.736;2024-01-15T11:10:54;4.20;;;2.37;;
59998;SDS011;45859;51.378;6.736;2024-01-15T11:16:18;4.50;;;2.87;;
59998;SDS011;45859;51.378;6.736;2024-01-15T11:21:46;7.90;;;3.33;;
59998;SDS011;45859;51.378;6.736;2024-01-15T11:27:02;7.63;;;4.20;;
59998;SDS011;45859;51.378;6.736;2024-01-15T11:29:38;3.87;;;2.47;;
59998;SDS011;45859;51.378;6.736;2024-01-15T11:35:14;2.23;;;1.53;;
59998;SDS011;45859;51.378;6.736;2024-01-15T11:40:42;1.00;;;0.77;;
59998;SDS011;45859;51.378;6.736;2024-01-15T11:46:12;2.20;;;1.20;;
59998;SDS011;45859;51.378;6.736;2024-01-15T11:48:58;2.90;;;1.50;;
59998;SDS011;45859;51.378;6.736;2024-01-15T11:51:30;3.27;;;1.57;;
59998;SDS011;45859;51.378;6.736;2024-01-15T11:54:03;4.10;;;1.57;;
59998;SDS011;45859;51.378;6.736;2024-01-15T11:56:48;2.23;;;1.70;;
59998;SDS011;45859;51.378;6.736;2024-01-15T11:59:33;0.67;;;0.60;;
59998;SDS011;45859;51.378;6.736;2024-01-15T12:02:07;3.33;;;1.80;;
59998;SDS011;45859;51.378;6.736;2024-01-15T12:04:38;4.27;;;1.83;;
59998;SDS011;45859;51.378;6.736;2024-01-15T12:07:07;3.90;;;1.50;;
59998;SDS011;45859;51.378;6.736;2024-01-15T12:09:41;3.20;;;2.57;;
59998;SDS011;45859;51.378;6.736;2024-01-15T12:15:11;5.33;;;2.03;;
59998;SDS011;45859;51.378;6.736;2024-01-15T12:17:46;1.50;;;1.10;;
59998;SDS011;45859;51.378;6.736;2024-01-15T12:20:24;3.47;;;2.07;;
59998;SDS011;45859;51.378;6.736;2024-01-15T12:23:02;6.13;;;1.83;;
59998;SDS011;45859;51.378;6.736;2024-01-15T12:25:50;5.13;;;1.40;;
59998;SDS011;45859;51.378;6.736;2024-01-15T12:28:19;4.53;;;1.77;;
59998;SDS011;45859;51.378;6.736;2024-01-15T12:30:46;4.50;;;1.80;;
59998;SDS011;45859;51.378;6.736;2024-01-15T12:33:17;4.60;;;1.27;;
59998;SDS011;45859;51.378;6.736;2024-01-15T12:35:44;1.23;;;1.03;;
59998;SDS011;45859;51.378;6.736;2024-01-15T12:38:10;2.27;;;1.30;;
59998;SDS011;45859;51.378;6.736;2024-01-15T12:40:36;1.73;;;1.10;;
59998;SDS011;45859;51.378;6.736;2024-01-15T12:43:05;5.03;;;2.33;;
59998;SDS011;45859;51.378;6.736;2024-01-15T12:45:32;2.17;;;0.97;;
59998;SDS011;45859;51.378;6.736;2024-01-15T12:47:58;2.53;;;1.57;;
59998;SDS011;45859;51.378;6.736;2024-01-15T12:50:25;6.23;;;2.77;;
59998;SDS011;45859;51.378;6.736;2024-01-15T12:52:52;5.80;;;2.90;;
59998;SDS011;45859;51.378;6.736;2024-01-15T12:55:18;4.80;;;1.87;;
59998;SDS011;45859;51.378;6.736;2024-01-15T12:57:44;4.33;;;1.67;;
59998;SDS011;45859;51.378;6.736;2024-01-15T13:00:10;5.67;;;1.63;;
59998;SDS011;45859;51.378;6.736;2024-01-15T13:02:46;6.50;;;2.07;;
59998;SDS011;45859;51.378;6.736;2024-01-15T13:05:14;2.33;;;1.00;;
59998;SDS011;45859;51.378;6.736;2024-01-15T13:07:42;1.90;;;1.30;;
59998;SDS011;45859;51.378;6.736;2024-01-15T13:10:08;3.23;;;1.83;;
59998;SDS011;45859;51.378;6.736;2024-01-15T13:12:34;4.03;;;2.60;;
59998;SDS011;45859;51.378;6.736;2024-01-15T13:15:01;3.83;;;2.17;;
59998;SDS011;45859;51.378;6.736;2024-01-15T13:17:42;3.33;;;1.87;;
59998;SDS011;45859;51.378;6.736;2024-01-15T13:20:42;4.53;;;2.37;;
59998;SDS011;45859;51.378;6.736;2024-01-15T13:23:33;3.70;;;1.57;;
59998;SDS011;45859;51.378;6.736;2024-01-15T13:26:03;4.97;;;2.87;;
59998;SDS011;45859;51.378;6.736;2024-01-15T13:28:30;5.43;;;3.17;;
59998;SDS011;45859;51.378;6.736;2024-01-15T13:30:59;4.23;;;2.30;;
59998;SDS011;45859;51.378;6.736;2024-01-15T13:33:25;3.20;;;2.23;;
59998;SDS011;45859;51.378;6.736;2024-01-15T13:35:54;5.57;;;2.37;;
59998;SDS011;45859;51.378;6.736;2024-01-15T13:38:20;7.23;;;3.00;;
59998;SDS011;45859;51.378;6.736;2024-01-15T13:40:51;4.43;;;1.87;;
59998;SDS011;45859;51.378;6.736;2024-01-15T13:46:11;3.40;;;1.13;;
59998;SDS011;45859;51.378;6.736;2024-01-15T13:48:37;4.50;;;1.60;;
59998;SDS011;45859;51.378;6.736;2024-01-15T13:51:10;3.57;;;1.23;;
59998;SDS011;45859;51.378;6.736;2024-01-15T13:53:42;0.40;;;0.37;;
59998;SDS011;45859;51.378;6.736;2024-01-15T13:56:44;0.57;;;0.53;;
59998;SDS011;45859;51.378;6.736;2024-01-15T13:59:12;1.47;;;0.87;;
59998;SDS011;45859;51.378;6.736;2024-01-15T14:01:51;2.47;;;1.67;;
59998;SDS011;45859;51.378;6.736;2024-01-15T14:04:17;1.07;;;0.87;;
59998;SDS011;45859;51.378;6.736;2024-01-15T14:06:43;0.70;;;0.70;;
59998;SDS011;45859;51.378;6.736;2024-01-15T14:09:21;1.43;;;1.03;;
59998;SDS011;45859;51.378;6.736;2024-01-15T14:11:49;0.40;;;0.40;;
59998;SDS011;45859;51.378;6.736;2024-01-15T14:14:21;0.90;;;0.77;;
59998;SDS011;45859;51.378;6.736;2024-01-15T14:16:49;1.10;;;0.37;;
59998;SDS011;45859;51.378;6.736;2024-01-15T14:19:21;0.40;;;0.40;;
59998;SDS011;45859;51.378;6.736;2024-01-15T14:22:06;1.07;;;0.60;;
59998;SDS011;45859;51.378;6.736;2024-01-15T14:24:32;1.00;;;0.60;;
59998;SDS011;45859;51.378;6.736;2024-01-15T14:26:58;0.10;;;0.10;;
59998;SDS011;45859;51.378;6.736;2024-01-15T14:29:27;1.80;;;1.17;;
59998;SDS011;45859;51.378;6.736;2024-01-15T14:31:54;1.90;;;0.47;;
59998;SDS011;45859;51.378;6.736;2024-01-15T14:34:20;2.23;;;1.00;;
59998;SDS011;45859;51.378;6.736;2024-01-15T14:36:54;0.93;;;0.60;;
59998;SDS011;45859;51.378;6.736;2024-01-15T14:42:11;0.70;;;0.70;;
59998;SDS011;45859;51.378;6.736;2024-01-15T14:44:37;0.83;;;0.70;;
59998;SDS011;45859;51.378;6.736;2024-01-15T14:47:05;1.50;;;0.87;;
59998;SDS011;45859;51.378;6.736;2024-01-15T14:49:31;4.83;;;1.10;;
59998;SDS011;45859;51.378;6.736;2024-01-15T14:51:57;0.87;;;0.80;;
59998;SDS011;45859;51.378;6.736;2024-01-15T14:54:23;0.77;;;0.50;;
59998;SDS011;45859;51.378;6.736;2024-01-15T14:56:49;2.73;;;1.03;;
59998;SDS011;45859;51.378;6.736;2024-01-15T14:59:15;1.97;;;1.10;;
59998;SDS011;45859;51.378;6.736;2024-01-15T15:01:41;2.10;;;1.13;;
59998;SDS011;45859;51.378;6.736;2024-01-15T15:04:07;1.83;;;1.40;;
59998;SDS011;45859;51.378;6.736;2024-01-15T15:06:35;1.53;;;0.60;;
59998;SDS011;45859;51.378;6.736;2024-01-15T15:09:01;2.93;;;1.33;;
59998;SDS011;45859;51.378;6.736;2024-01-15T15:11:27;2.30;;;0.80;;
59998;SDS011;45859;51.378;6.736;2024-01-15T15:13:53;3.23;;;1.13;;
59998;SDS011;45859;51.378;6.736;2024-01-15T15:16:19;4.20;;;1.47;;
59998;SDS011;45859;51.378;6.736;2024-01-15T15:18:45;0.60;;;0.43;;